createdAt,value
2024-02-28T00:00:53.245Z,17.60
2024-02-28T00:03:55.780Z,22.70
2024-02-28T00:06:59.906Z,20.00
2024-02-28T00:10:03.504Z,17.20
2024-02-28T00:13:05.588Z,18.08
2024-02-28T00:16:08.293Z,27.80
2024-02-28T00:19:10.785Z,20.27
2024-02-28T00:22:14.228Z,17.38
2024-02-28T00:25:17.722Z,17.65
2024-02-28T00:28:20.956Z,17.60
2024-02-28T00:31:24.047Z,16.40
2024-02-28T00:34:27.192Z,18.45
2024-02-28T00:37:29.391Z,18.95
2024-02-28T00:40:32.746Z,17.42
2024-02-28T00:43:34.783Z,23.30
2024-02-28T00:46:37.347Z,20.50
2024-02-28T00:49:39.851Z,16.80
2024-02-28T00:52:45.288Z,20.58
2024-02-28T00:55:48.306Z,18.88
2024-02-28T00:58:51.439Z,18.20
2024-02-28T01:01:53.894Z,22.23
2024-02-28T01:04:56.008Z,21.88
2024-02-28T01:07:58.297Z,19.70
2024-02-28T01:11:00.758Z,24.13
2024-02-28T01:14:06.265Z,23.27
2024-02-28T01:17:08.624Z,20.42
2024-02-28T01:20:11.777Z,26.73
2024-02-28T01:23:13.687Z,23.90
2024-02-28T01:26:16.133Z,27.00
2024-02-28T01:29:18.134Z,24.23
2024-02-28T01:32:21.475Z,28.27
2024-02-28T01:35:25.766Z,21.02
2024-02-28T01:38:29.944Z,22.33
2024-02-28T01:41:32.449Z,23.67
2024-02-28T01:44:39.905Z,21.23
2024-02-28T01:47:43.738Z,23.00
2024-02-28T01:50:49.353Z,24.10
2024-02-28T01:53:52.748Z,21.58
2024-02-28T01:56:55.655Z,23.00
2024-02-28T01:59:58.245Z,23.63
2024-02-28T02:03:01.983Z,26.80
2024-02-28T02:06:05.024Z,25.10
2024-02-28T02:09:06.960Z,26.02
2024-02-28T02:12:09.300Z,25.10
2024-02-28T02:15:13.428Z,22.45
2024-02-28T02:18:16.011Z,23.70
2024-02-28T02:21:20.848Z,23.20
2024-02-28T02:24:22.978Z,28.88
2024-02-28T02:27:28.174Z,32.08
2024-02-28T02:30:30.492Z,23.70
2024-02-28T02:33:32.754Z,25.13
2024-02-28T02:36:39.548Z,26.90
2024-02-28T02:39:42.500Z,26.95
2024-02-28T02:42:44.909Z,26.23
2024-02-28T02:45:47.184Z,30.23
2024-02-28T02:48:50.142Z,26.10
2024-02-28T02:51:53.510Z,25.48
2024-02-28T02:54:56.739Z,26.08
2024-02-28T02:58:00.014Z,21.65
2024-02-28T03:01:02.280Z,26.58
2024-02-28T03:04:04.618Z,28.00
2024-02-28T03:07:08.621Z,29.58
2024-02-28T03:10:11.931Z,26.65
2024-02-28T03:13:13.922Z,25.35
2024-02-28T03:16:16.332Z,27.60
2024-02-28T03:19:21.153Z,26.75
2024-02-28T03:22:23.137Z,25.05
2024-02-28T03:25:26.185Z,25.73
2024-02-28T03:28:31.352Z,25.50
2024-02-28T03:34:35.851Z,27.02
2024-02-28T03:37:37.890Z,23.60
2024-02-28T03:40:40.170Z,24.25
2024-02-28T03:43:43.323Z,20.17
2024-02-28T03:46:45.632Z,23.17
2024-02-28T03:49:52.777Z,22.58
2024-02-28T03:52:56.580Z,21.58
2024-02-28T03:55:59.794Z,24.42
2024-02-28T03:59:05.916Z,24.35
2024-02-28T04:02:11.340Z,23.90
2024-02-28T04:05:13.462Z,22.95
2024-02-28T04:08:17.142Z,20.45
2024-02-28T04:11:19.757Z,21.35
2024-02-28T04:14:21.972Z,18.70
2024-02-28T04:17:24.217Z,22.17
2024-02-28T04:20:26.667Z,27.52
2024-02-28T04:23:28.655Z,20.25
2024-02-28T04:26:30.892Z,25.98
2024-02-28T04:29:33.246Z,18.83
2024-02-28T04:32:36.856Z,24.45
2024-02-28T04:35:40.419Z,27.90
2024-02-28T04:38:43.005Z,28.83
2024-02-28T04:41:45.251Z,25.25
2024-02-28T04:44:49.202Z,29.15
2024-02-28T04:47:53.722Z,22.98
2024-02-28T04:50:57.942Z,23.48
2024-02-28T04:53:59.917Z,26.25
2024-02-28T04:57:04.926Z,22.30
2024-02-28T05:00:09.759Z,28.02
2024-02-28T05:06:14.327Z,23.02
2024-02-28T05:09:16.452Z,21.65
2024-02-28T05:12:18.707Z,22.80
2024-02-28T05:15:21.128Z,24.98
2024-02-28T05:18:23.316Z,28.23
2024-02-28T05:21:25.547Z,27.05
2024-02-28T05:24:28.853Z,22.80
2024-02-28T05:27:32.433Z,23.33
2024-02-28T05:30:34.517Z,27.83
2024-02-28T05:33:36.528Z,26.77
2024-02-28T05:36:38.982Z,25.58
2024-02-28T05:39:41.525Z,29.58
2024-02-28T05:42:45.096Z,30.23
2024-02-28T05:45:48.084Z,22.65
2024-02-28T05:48:50.310Z,22.85
2024-02-28T05:51:52.784Z,21.90
2024-02-28T05:54:55.861Z,21.75
2024-02-28T05:57:58.015Z,26.67
2024-02-28T06:01:01.989Z,27.95
2024-02-28T06:04:04.456Z,27.13
2024-02-28T06:07:08.544Z,34.10
2024-02-28T06:10:11.882Z,28.67
2024-02-28T06:13:14.678Z,30.50
2024-02-28T06:16:17.686Z,26.83
2024-02-28T06:19:20.548Z,23.23
2024-02-28T06:22:25.194Z,23.20
2024-02-28T06:25:29.456Z,28.08
2024-02-28T06:28:33.285Z,24.45
2024-02-28T06:31:35.531Z,22.77
2024-02-28T06:34:39.280Z,24.33
2024-02-28T06:37:41.450Z,27.33
2024-02-28T06:40:44.269Z,25.50
2024-02-28T06:43:47.380Z,29.73
2024-02-28T06:46:49.687Z,27.33
2024-02-28T06:49:53.372Z,21.13
2024-02-28T06:52:55.686Z,25.60
2024-02-28T06:55:59.738Z,24.02
2024-02-28T06:59:02.477Z,24.25
2024-02-28T07:02:06.089Z,30.10
2024-02-28T07:05:09.817Z,26.90
2024-02-28T07:08:13.150Z,24.40
2024-02-28T07:11:18.537Z,22.33
2024-02-28T07:14:24.607Z,22.73
2024-02-28T07:17:26.791Z,26.42
2024-02-28T07:20:29.376Z,26.92
2024-02-28T07:23:32.192Z,27.85
2024-02-28T07:26:35.167Z,23.77
2024-02-28T07:29:39.269Z,29.02
2024-02-28T07:32:41.420Z,26.85
2024-02-28T07:35:52.898Z,25.83
2024-02-28T07:38:56.878Z,23.42
2024-02-28T07:41:59.130Z,24.30
2024-02-28T07:45:01.199Z,25.75
2024-02-28T07:48:05.728Z,22.25
2024-02-28T07:51:11.945Z,26.55
2024-02-28T07:54:14.043Z,26.10
2024-02-28T07:57:16.838Z,28.20
2024-02-28T08:00:21.241Z,27.35
2024-02-28T08:03:23.364Z,28.17
2024-02-28T08:06:26.154Z,28.98
2024-02-28T08:09:29.729Z,28.10
2024-02-28T08:12:35.403Z,27.67
2024-02-28T08:15:37.746Z,26.25
2024-02-28T08:18:40.653Z,20.77
2024-02-28T08:21:46.039Z,21.90
2024-02-28T08:24:53.001Z,26.25
2024-02-28T08:27:56.236Z,24.98
2024-02-28T08:30:59.851Z,25.38
2024-02-28T08:34:05.066Z,22.48
2024-02-28T08:37:07.142Z,23.70
2024-02-28T08:40:10.752Z,21.25
2024-02-28T08:43:13.337Z,27.00
2024-02-28T08:46:17.237Z,23.40
2024-02-28T08:49:20.761Z,25.15
2024-02-28T08:52:23.382Z,26.15
2024-02-28T08:55:25.373Z,22.02
2024-02-28T08:58:28.224Z,20.48
2024-02-28T09:01:30.397Z,29.00
2024-02-28T09:04:34.608Z,19.70
2024-02-28T09:07:38.266Z,24.40
2024-02-28T09:10:40.226Z,20.08
2024-02-28T09:13:42.587Z,19.25
2024-02-28T09:16:45.966Z,18.13
2024-02-28T09:19:49.329Z,19.17
2024-02-28T09:22:52.489Z,18.42
2024-02-28T09:25:54.404Z,13.25
2024-02-28T09:28:56.692Z,18.30
2024-02-28T09:31:58.763Z,16.25
2024-02-28T09:35:00.810Z,17.33
2024-02-28T09:38:04.058Z,16.30
2024-02-28T09:41:07.568Z,18.85
2024-02-28T09:44:09.813Z,18.52
2024-02-28T09:47:15.335Z,16.67
2024-02-28T09:50:20.228Z,16.23
2024-02-28T09:56:25.983Z,14.85
2024-02-28T09:59:35.753Z,14.23
2024-02-28T10:02:46.749Z,17.20
2024-02-28T10:05:49.502Z,13.05
2024-02-28T10:08:53.387Z,16.50
2024-02-28T10:11:55.871Z,17.67
2024-02-28T10:15:03.538Z,14.10
2024-02-28T10:18:06.122Z,14.30
2024-02-28T10:21:08.241Z,13.70
2024-02-28T10:24:15.072Z,11.30
2024-02-28T10:27:22.815Z,13.38
2024-02-28T10:30:26.408Z,9.77
2024-02-28T10:33:34.631Z,12.25
2024-02-28T10:36:38.168Z,13.50
2024-02-28T10:39:42.390Z,16.77
2024-02-28T10:42:45.013Z,10.45
2024-02-28T10:46:07.881Z,10.40
2024-02-28T10:49:12.853Z,11.90
2024-02-28T10:52:15.970Z,12.07
2024-02-28T10:55:25.856Z,10.88
2024-02-28T10:58:29.582Z,9.77
2024-02-28T11:01:33.344Z,13.00
2024-02-28T11:04:37.427Z,6.32
2024-02-28T11:07:43.662Z,11.10
2024-02-28T11:10:54.301Z,7.20
2024-02-28T11:14:01.284Z,7.80
2024-02-28T11:17:04.390Z,10.10
2024-02-28T11:20:14.319Z,7.50
2024-02-28T11:23:18.720Z,8.00
2024-02-28T11:26:21.740Z,10.18
2024-02-28T11:29:30.175Z,11.32
2024-02-28T11:32:33.957Z,12.48
2024-02-28T11:35:36.614Z,14.70
2024-02-28T11:38:40.243Z,11.80
2024-02-28T11:41:47.415Z,13.23
2024-02-28T11:45:01.278Z,13.63
2024-02-28T11:48:06.147Z,8.45
2024-02-28T11:51:08.440Z,10.43
2024-02-28T11:54:13.947Z,14.82
2024-02-28T11:57:18.838Z,9.15
2024-02-28T12:00:24.653Z,11.75
2024-02-28T12:03:37.994Z,9.75
2024-02-28T12:06:45.834Z,10.55
2024-02-28T12:09:51.443Z,11.20
2024-02-28T12:12:54.911Z,9.48
2024-02-28T12:15:59.536Z,10.50
2024-02-28T12:19:07.723Z,13.00
2024-02-28T12:22:13.221Z,12.68
2024-02-28T12:25:17.454Z,10.15
2024-02-28T12:28:20.429Z,9.05
2024-02-28T12:31:23.451Z,7.88
2024-02-28T12:34:26.224Z,9.75
2024-02-28T12:37:29.623Z,7.05
2024-02-28T12:40:34.535Z,12.82
2024-02-28T12:43:36.610Z,7.90
2024-02-28T12:46:39.172Z,9.93
2024-02-28T12:49:44.844Z,6.28
2024-02-28T12:52:47.270Z,9.48
2024-02-28T12:55:50.829Z,10.75
2024-02-28T12:58:54.769Z,7.20
2024-02-28T13:01:56.850Z,7.85
2024-02-28T13:05:00.222Z,7.18
2024-02-28T13:08:02.679Z,6.70
2024-02-28T13:11:05.060Z,7.43
2024-02-28T13:14:09.630Z,7.03
2024-02-28T13:17:12.428Z,6.47
2024-02-28T13:20:15.355Z,5.88
2024-02-28T13:23:17.875Z,8.55
2024-02-28T13:26:22.198Z,6.75
2024-02-28T13:29:24.987Z,7.68
2024-02-28T13:32:27.097Z,7.85
2024-02-28T13:35:29.689Z,5.72
2024-02-28T13:38:31.711Z,6.63
2024-02-28T13:41:33.919Z,9.27
2024-02-28T13:44:38.306Z,6.07
2024-02-28T13:47:41.135Z,10.20
2024-02-28T13:50:43.662Z,6.38
2024-02-28T13:53:45.994Z,6.47
2024-02-28T13:56:48.111Z,7.68
2024-02-28T13:59:50.464Z,4.97
2024-02-28T14:02:52.885Z,6.55
2024-02-28T14:05:55.265Z,8.13
2024-02-28T14:09:00.264Z,7.50
2024-02-28T14:12:02.896Z,4.82
2024-02-28T14:15:06.006Z,5.95
2024-02-28T14:18:10.986Z,6.97
2024-02-28T14:21:14.858Z,5.47
2024-02-28T14:24:20.865Z,6.60
2024-02-28T14:27:23.544Z,5.95
2024-02-28T14:30:27.222Z,10.02
2024-02-28T14:36:33.874Z,26.25
2024-02-28T14:39:36.169Z,5.05
2024-02-28T14:42:42.150Z,10.88
2024-02-28T14:45:44.337Z,6.68
2024-02-28T14:48:52.708Z,14.07
2024-02-28T14:51:54.991Z,20.65
2024-02-28T14:54:57.102Z,16.00
2024-02-28T14:58:01.693Z,12.25
2024-02-28T15:04:07.387Z,9.98
2024-02-28T15:07:12.317Z,19.25
2024-02-28T15:10:15.663Z,17.65
2024-02-28T15:13:17.812Z,17.02
2024-02-28T15:16:20.481Z,10.10
2024-02-28T15:19:22.549Z,18.83
2024-02-28T15:22:24.819Z,11.30
2024-02-28T15:25:27.319Z,13.45
2024-02-28T15:28:31.883Z,8.05
2024-02-28T15:31:34.338Z,13.60
2024-02-28T15:34:36.622Z,13.82
2024-02-28T15:37:40.662Z,22.73
2024-02-28T15:40:43.360Z,20.33
2024-02-28T15:43:45.822Z,19.90
2024-02-28T15:46:52.059Z,17.92
2024-02-28T15:49:54.138Z,16.65
2024-02-28T15:52:56.804Z,12.52
2024-02-28T15:56:00.755Z,27.48
2024-02-28T15:59:03.837Z,16.67
2024-02-28T16:02:07.285Z,23.73
2024-02-28T16:05:09.671Z,28.08
2024-02-28T16:08:11.674Z,17.55
2024-02-28T16:11:14.174Z,13.18
2024-02-28T16:14:16.832Z,14.63
2024-02-28T16:17:19.713Z,13.00
2024-02-28T16:20:25.407Z,10.90
2024-02-28T16:23:27.675Z,11.80
2024-02-28T16:26:31.085Z,10.57
2024-02-28T16:29:34.223Z,11.10
2024-02-28T16:32:39.666Z,9.15
2024-02-28T16:35:42.953Z,11.23
2024-02-28T16:38:49.167Z,14.95
2024-02-28T16:41:53.172Z,12.57
2024-02-28T16:44:56.678Z,13.52
2024-02-28T16:51:02.574Z,13.85
2024-02-28T16:54:05.478Z,17.42
2024-02-28T16:57:08.641Z,12.60
2024-02-28T17:00:11.899Z,16.48
2024-02-28T17:03:17.707Z,12.05
2024-02-28T17:06:19.927Z,12.38
2024-02-28T17:09:28.686Z,9.77
2024-02-28T17:12:30.890Z,13.73
2024-02-28T17:15:41.063Z,9.27
2024-02-28T17:18:44.042Z,10.25
2024-02-28T17:21:46.440Z,12.18
2024-02-28T17:24:48.948Z,12.38
2024-02-28T17:27:51.191Z,11.30
2024-02-28T17:30:54.345Z,11.45
2024-02-28T17:33:57.734Z,18.40
2024-02-28T17:37:01.598Z,13.10
2024-02-28T17:40:04.993Z,20.05
2024-02-28T17:43:07.284Z,16.85
2024-02-28T17:46:09.359Z,12.80
2024-02-28T17:49:11.973Z,10.38
2024-02-28T17:52:14.204Z,11.00
2024-02-28T17:55:17.370Z,11.20
2024-02-28T17:58:19.978Z,17.15
2024-02-28T18:01:23.258Z,15.10
2024-02-28T18:04:25.965Z,13.55
2024-02-28T18:07:28.682Z,14.60
2024-02-28T18:10:31.888Z,16.88
2024-02-28T18:13:34.549Z,14.05
2024-02-28T18:16:37.871Z,11.68
2024-02-28T18:19:40.896Z,13.63
2024-02-28T18:22:42.897Z,13.77
2024-02-28T18:25:45.106Z,13.57
2024-02-28T18:28:48.292Z,18.02
2024-02-28T18:31:50.375Z,15.13
2024-02-28T18:34:53.652Z,16.58
2024-02-28T18:37:56.839Z,12.02
2024-02-28T18:41:00.030Z,11.80
2024-02-28T18:44:05.043Z,13.77
2024-02-28T18:50:10.545Z,14.48
2024-02-28T18:53:13.218Z,16.73
2024-02-28T18:56:15.676Z,15.25
2024-02-28T18:59:18.856Z,16.30
2024-02-28T19:02:20.864Z,15.50
2024-02-28T19:05:23.037Z,14.07
2024-02-28T19:08:26.180Z,11.65
2024-02-28T19:11:31.147Z,18.65
2024-02-28T19:14:34.469Z,23.20
2024-02-28T19:17:38.650Z,15.57
2024-02-28T19:20:40.891Z,15.43
2024-02-28T19:23:47.437Z,15.85
2024-02-28T19:26:49.535Z,16.17
2024-02-28T19:29:51.810Z,11.82
2024-02-28T19:32:56.795Z,15.88
2024-02-28T19:35:59.319Z,14.32
2024-02-28T19:39:05.308Z,12.25
2024-02-28T19:42:07.944Z,12.27
2024-02-28T19:45:11.413Z,13.68
2024-02-28T19:48:13.889Z,11.57
2024-02-28T19:51:17.556Z,11.38
2024-02-28T19:54:20.523Z,17.45
2024-02-28T19:57:22.717Z,12.07
2024-02-28T20:00:25.405Z,15.25
2024-02-28T20:03:27.858Z,10.80
2024-02-28T20:06:29.964Z,16.80
2024-02-28T20:09:36.683Z,10.23
2024-02-28T20:12:38.871Z,12.73
2024-02-28T20:15:41.509Z,17.65
2024-02-28T20:18:43.643Z,13.93
2024-02-28T20:21:47.669Z,20.05
2024-02-28T20:24:50.344Z,13.82
2024-02-28T20:27:53.033Z,14.02
2024-02-28T20:30:56.366Z,14.98
2024-02-28T20:34:02.185Z,12.45
2024-02-28T20:37:06.437Z,17.33
2024-02-28T20:40:13.963Z,14.10
2024-02-28T20:43:17.202Z,14.00
2024-02-28T20:46:24.648Z,16.17
2024-02-28T20:49:26.746Z,12.65
2024-02-28T20:52:29.271Z,13.35
2024-02-28T20:55:32.315Z,16.88
2024-02-28T20:58:34.922Z,13.27
2024-02-28T21:01:37.889Z,15.23
2024-02-28T21:04:42.646Z,21.45
2024-02-28T21:07:51.827Z,13.05
2024-02-28T21:10:55.506Z,15.93
2024-02-28T21:13:58.083Z,16.88
2024-02-28T21:17:02.364Z,14.27
2024-02-28T21:20:09.560Z,21.55
2024-02-28T21:23:15.327Z,10.30
2024-02-28T21:26:19.250Z,14.82
2024-02-28T21:29:21.925Z,13.43
2024-02-28T21:32:24.436Z,13.95
2024-02-28T21:35:26.686Z,14.00
2024-02-28T21:38:30.499Z,14.50
2024-02-28T21:41:33.411Z,12.93
2024-02-28T21:44:35.473Z,15.23
2024-02-28T21:47:37.694Z,15.68
2024-02-28T21:50:44.431Z,14.55
2024-02-28T21:53:46.519Z,14.00
2024-02-28T21:56:49.802Z,13.75
2024-02-28T21:59:53.351Z,16.67
2024-02-28T22:02:56.737Z,15.30
2024-02-28T22:06:00.251Z,13.52
2024-02-28T22:09:03.746Z,13.27
2024-02-28T22:12:06.114Z,14.55
2024-02-28T22:15:09.251Z,17.38
2024-02-28T22:18:11.938Z,11.68
2024-02-28T22:21:14.964Z,17.63
2024-02-28T22:24:17.072Z,13.15
2024-02-28T22:27:19.005Z,14.30
2024-02-28T22:30:21.667Z,15.95
2024-02-28T22:33:23.923Z,13.85
2024-02-28T22:36:26.025Z,15.57
2024-02-28T22:39:28.168Z,19.17
2024-02-28T22:42:30.568Z,15.23
2024-02-28T22:45:33.752Z,14.20
2024-02-28T22:48:35.866Z,17.05
2024-02-28T22:51:40.618Z,15.52
2024-02-28T22:54:45.539Z,13.35
2024-02-28T22:57:47.708Z,15.55
2024-02-28T23:00:50.539Z,15.68
2024-02-28T23:03:53.178Z,19.33
2024-02-28T23:10:00.503Z,18.85
2024-02-28T23:13:03.318Z,22.05
2024-02-28T23:16:06.793Z,12.63
2024-02-28T23:19:09.515Z,17.92
2024-02-28T23:22:13.147Z,17.52
2024-02-28T23:25:15.237Z,18.50
2024-02-28T23:28:17.725Z,14.27
2024-02-28T23:31:22.666Z,18.58
2024-02-28T23:34:25.143Z,20.33
2024-02-28T23:37:27.268Z,17.52
2024-02-28T23:40:31.161Z,14.60
2024-02-28T23:43:34.375Z,21.92
2024-02-28T23:46:37.856Z,21.13
2024-02-28T23:49:40.709Z,17.05
2024-02-28T23:52:43.563Z,19.50
2024-02-28T23:55:45.635Z,13.77
2024-02-28T23:58:47.744Z,18.80
